Texanna, Oklahoma
Current Conditions -  °F | °C
As of 6:53 AM on Friday 19 Dec 2014 (Local Time) from KMKO Reporting Station
Haze Haze  
Wind Chill:   Ceiling: 600
Heat Index:   Visibility: 2.5mi
Dew Point:   Wind: 6mph
Humidity: 93%   Direction: 340°NNW
Pressure: 30.25"   Gusts: NA
Location:  35.4498°N, 95.4869°W
Report Text: KMKO 191253Z AUTO 34005KT 2 1/2SM BR OVC006 04/03 A3025 RMK AO2 SLP245 T00440033
Loading
Personal Weather Stations






























Interactive Weather Map New forecast layout! Learn more

10-Day Weather Forecast

Advertisements
Track Severe Weather on mobile